Time;durP1;ratioP1;P1;durP2;ratioP2;P2;SDS_P1;SDS_P2;PMS_P1;PMS_P2;Temp;Humidity;BMP_temperature;BMP_pressure;BME280_temperature;BME280_humidity;BME280_pressure;Samples;Min_cycle;Max_cycle;Signal;HPM_P1;HPM_P2
2023/09/06 00:00:26;;;;;;;3.22;1.95;;;18.50;88.60;;;;;;5025615;28;20033;-73
2023/09/06 00:02:52;;;;;;;3.20;1.88;;;18.50;88.40;;;;;;5028066;28;20075;-73
2023/09/06 00:05:17;;;;;;;4.35;2.10;;;18.50;88.20;;;;;;5029640;28;20025;-74
2023/09/06 00:07:46;;;;;;;3.88;2.15;;;18.50;88.40;;;;;;5031881;28;20045;-73
2023/09/06 00:10:11;;;;;;;7.05;2.20;;;18.40;88.40;;;;;;5026227;28;20030;-74
2023/09/06 00:12:39;;;;;;;2.35;1.67;;;18.50;88.30;;;;;;5026183;28;20474;-74
2023/09/06 00:15:06;;;;;;;3.33;1.92;;;18.50;88.20;;;;;;5020408;28;20036;-73
2023/09/06 00:17:31;;;;;;;5.57;1.90;;;18.50;87.90;;;;;;5023749;28;20405;-74
2023/09/06 00:19:56;;;;;;;4.95;2.15;;;18.50;88.30;;;;;;5028732;28;20037;-74
2023/09/06 00:22:22;;;;;;;5.43;2.10;;;18.50;87.60;;;;;;5035823;28;20076;-74
2023/09/06 00:24:47;;;;;;;3.40;1.92;;;18.50;87.80;;;;;;5024307;28;20076;-76
2023/09/06 00:27:14;;;;;;;5.30;1.90;;;18.50;87.90;;;;;;5027135;28;20049;-74
2023/09/06 00:29:41;;;;;;;4.45;1.85;;;18.60;87.50;;;;;;5035094;28;20017;-74
2023/09/06 00:32:06;;;;;;;4.05;1.88;;;18.50;87.90;;;;;;5026649;28;20033;-73
2023/09/06 00:34:33;;;;;;;3.28;1.80;;;18.50;88.20;;;;;;5024336;28;20033;-73
2023/09/06 00:37:01;;;;;;;4.75;2.20;;;18.30;88.30;;;;;;5029121;28;20025;-73
2023/09/06 00:39:30;;;;;;;3.22;1.88;;;18.20;88.50;;;;;;5029668;28;20124;-75
2023/09/06 00:41:55;;;;;;;5.03;2.22;;;18.20;88.70;;;;;;5023703;28;20481;-73
2023/09/06 00:44:21;;;;;;;5.75;1.95;;;18.20;88.80;;;;;;5028497;28;20049;-73
2023/09/06 00:46:47;;;;;;;4.25;1.98;;;18.10;88.70;;;;;;5020868;28;20025;-73
2023/09/06 00:49:12;;;;;;;8.18;2.40;;;18.10;88.90;;;;;;5020257;28;20036;-73
2023/09/06 00:51:38;;;;;;;3.97;2.30;;;18.10;88.90;;;;;;5025884;28;20045;-73
2023/09/06 00:54:03;;;;;;;2.60;1.95;;;18.10;89.00;;;;;;5029249;28;20117;-74
2023/09/06 00:56:29;;;;;;;2.85;1.90;;;18.00;89.20;;;;;;5021467;28;20053;-73
2023/09/06 00:58:54;;;;;;;6.95;2.40;;;18.00;89.40;;;;;;5028927;28;20037;-73
2023/09/06 01:01:20;;;;;;;4.43;2.10;;;18.00;89.50;;;;;;5023551;28;20256;-74
2023/09/06 01:03:45;;;;;;;5.10;1.85;;;18.00;89.40;;;;;;5010975;28;20025;-73
2023/09/06 01:06:25;;;;;;;3.33;2.08;;;17.90;89.40;;;;;;5010999;28;20108;-73
2023/09/06 01:08:58;;;;;;;6.10;1.92;;;17.80;89.80;;;;;;5028387;28;20025;-72
2023/09/06 01:11:27;;;;;;;3.42;1.90;;;17.70;90.10;;;;;;5023094;28;20510;-74
2023/09/06 01:14:02;;;;;;;4.82;2.13;;;17.60;90.20;;;;;;5028049;28;20057;-73
2023/09/06 01:16:45;;;;;;;4.53;2.13;;;17.60;90.20;;;;;;5023437;28;20034;-73
2023/09/06 01:19:14;;;;;;;4.80;2.58;;;17.60;90.40;;;;;;5028205;28;20482;-73
2023/09/06 01:21:47;;;;;;;5.10;2.28;;;17.50;90.50;;;;;;5030042;28;20056;-73
2023/09/06 01:24:15;;;;;;;4.35;2.47;;;17.50;90.90;;;;;;5028557;28;20029;-75
2023/09/06 01:26:40;;;;;;;2.92;2.00;;;17.50;91.20;;;;;;5025783;28;20481;-76
2023/09/06 01:29:06;;;;;;;3.80;2.22;;;17.50;91.20;;;;;;5032938;28;20065;-73
2023/09/06 01:31:32;;;;;;;5.55;2.15;;;17.50;91.20;;;;;;5027786;28;20415;-74
2023/09/06 01:33:57;;;;;;;4.95;2.20;;;17.40;91.10;;;;;;5032094;28;20034;-73
2023/09/06 01:36:23;;;;;;;4.10;2.35;;;17.30;91.30;;;;;;5016124;28;20034;-73
2023/09/06 01:38:51;;;;;;;6.10;2.28;;;17.10;91.80;;;;;;5033944;28;20119;-73
2023/09/06 01:41:16;;;;;;;6.45;2.35;;;17.10;91.50;;;;;;5026801;28;20039;-76
2023/09/06 01:43:42;;;;;;;4.60;2.60;;;17.00;91.70;;;;;;5029314;28;20033;-74
2023/09/06 01:46:07;;;;;;;5.25;2.30;;;17.00;92.10;;;;;;5022333;28;20120;-76
2023/09/06 01:48:33;;;;;;;7.47;2.38;;;17.00;92.40;;;;;;5033138;28;20039;-74
2023/09/06 01:50:58;;;;;;;6.13;2.20;;;17.00;92.80;;;;;;5033527;28;20038;-74
2023/09/06 01:53:24;;;;;;;4.70;2.17;;;17.00;92.90;;;;;;5033923;28;20393;-73
2023/09/06 01:55:50;;;;;;;5.95;2.47;;;17.00;93.00;;;;;;5029794;28;20118;-73
2023/09/06 01:58:16;;;;;;;4.22;2.42;;;16.90;93.00;;;;;;5028680;28;20033;-73
2023/09/06 02:00:44;;;;;;;6.25;2.60;;;16.80;92.70;;;;;;5024990;28;20057;-74
2023/09/06 02:03:14;;;;;;;4.22;2.47;;;16.90;92.70;;;;;;5027587;28;20029;-74
2023/09/06 02:05:43;;;;;;;4.55;2.50;;;16.80;92.60;;;;;;5031954;28;20417;-74
2023/09/06 02:08:09;;;;;;;4.70;2.20;;;16.70;92.60;;;;;;5027844;28;20025;-75
2023/09/06 02:10:34;;;;;;;4.28;2.70;;;16.70;93.10;;;;;;5026381;28;20392;-73
2023/09/06 02:13:00;;;;;;;4.75;2.72;;;16.60;92.70;;;;;;5024037;28;20115;-73
2023/09/06 02:15:25;;;;;;;7.15;2.53;;;16.50;92.90;;;;;;5031762;28;20034;-73
2023/09/06 02:17:52;;;;;;;4.22;2.65;;;16.50;93.10;;;;;;5020490;28;20046;-73
2023/09/06 02:20:19;;;;;;;5.60;2.53;;;16.40;93.40;;;;;;5030277;28;20033;-73
2023/09/06 02:22:51;;;;;;;6.78;2.67;;;16.40;93.30;;;;;;5033173;28;20044;-74
2023/09/06 02:25:20;;;;;;;4.07;2.58;;;16.40;93.40;;;;;;5023402;28;21501;-74
2023/09/06 02:27:46;;;;;;;4.32;2.70;;;16.40;94.00;;;;;;5028643;28;20068;-75
2023/09/06 02:30:12;;;;;;;5.57;2.60;;;16.50;94.40;;;;;;5028910;28;20069;-74
2023/09/06 02:32:38;;;;;;;3.30;2.47;;;16.50;94.40;;;;;;5031306;28;20056;-73
2023/09/06 02:35:06;;;;;;;5.22;2.75;;;16.40;94.40;;;;;;5031135;28;20159;-75
2023/09/06 02:37:32;;;;;;;5.75;2.80;;;16.50;94.50;;;;;;5039897;28;20115;-74
2023/09/06 02:39:57;;;;;;;3.88;2.72;;;16.30;94.10;;;;;;5033664;28;20033;-73
2023/09/06 02:42:23;;;;;;;3.55;2.63;;;16.30;94.00;;;;;;5028010;28;20099;-73
2023/09/06 02:44:49;;;;;;;5.15;2.92;;;16.30;93.90;;;;;;5025130;28;20385;-74
2023/09/06 02:47:17;;;;;;;7.05;2.88;;;16.20;93.80;;;;;;5020140;28;20036;-73
2023/09/06 02:49:45;;;;;;;5.15;2.97;;;16.20;93.90;;;;;;5027761;28;20075;-73
2023/09/06 02:52:20;;;;;;;3.25;2.10;;;16.10;94.00;;;;;;5027069;28;20104;-73
2023/09/06 02:54:47;;;;;;;6.68;2.67;;;16.10;94.10;;;;;;5030019;28;20025;-73
2023/09/06 02:57:14;;;;;;;5.57;2.88;;;16.10;94.20;;;;;;5030888;28;20095;-73
2023/09/06 02:59:39;;;;;;;7.28;3.10;;;16.10;94.00;;;;;;5029837;28;20036;-73
2023/09/06 03:02:05;;;;;;;4.70;2.92;;;16.10;94.50;;;;;;5018840;28;20034;-73
2023/09/06 03:04:37;;;;;;;4.28;2.75;;;16.10;94.40;;;;;;5027790;28;20105;-73
2023/09/06 03:07:09;;;;;;;4.97;3.00;;;16.10;94.30;;;;;;5029983;28;20383;-73
2023/09/06 03:09:35;;;;;;;5.47;2.90;;;16.10;94.40;;;;;;5031215;28;20063;-73
2023/09/06 03:12:11;;;;;;;5.20;2.83;;;16.20;94.50;;;;;;5025795;28;20521;-73
2023/09/06 03:14:43;;;;;;;6.03;3.28;;;16.20;94.50;;;;;;5018677;28;20113;-74
2023/09/06 03:17:09;;;;;;;5.07;3.00;;;16.30;94.60;;;;;;5021264;28;20498;-73
2023/09/06 03:19:45;;;;;;;6.05;3.35;;;16.30;94.50;;;;;;5032336;28;20018;-73
2023/09/06 03:22:12;;;;;;;7.57;3.25;;;16.40;94.40;;;;;;5035066;28;20036;-73
2023/09/06 03:24:43;;;;;;;4.72;2.90;;;16.40;94.20;;;;;;5030876;28;20369;-73
2023/09/06 03:27:10;;;;;;;6.25;2.97;;;16.40;94.00;;;;;;5030024;28;20025;-73
2023/09/06 03:29:38;;;;;;;4.50;3.15;;;16.40;94.10;;;;;;5026577;28;20039;-74
2023/09/06 03:32:09;;;;;;;6.65;3.22;;;16.40;94.10;;;;;;5033184;28;20053;-74
2023/09/06 03:34:35;;;;;;;5.75;3.10;;;16.40;94.00;;;;;;5027875;28;20366;-73
2023/09/06 03:37:04;;;;;;;5.47;2.90;;;16.40;94.00;;;;;;5025339;28;20096;-73
2023/09/06 03:39:31;;;;;;;5.65;3.13;;;16.40;94.10;;;;;;5029021;28;20037;-74
2023/09/06 03:42:00;;;;;;;9.25;3.15;;;16.40;93.90;;;;;;5027141;28;20038;-74
2023/09/06 03:44:27;;;;;;;7.82;2.88;;;16.40;94.00;;;;;;5021946;28;20417;-75
2023/09/06 03:46:56;;;;;;;6.30;2.83;;;16.30;94.20;;;;;;5021293;28;20478;-73
2023/09/06 03:49:23;;;;;;;6.30;2.90;;;16.20;94.10;;;;;;5027156;28;20034;-72
2023/09/06 03:51:50;;;;;;;4.40;2.90;;;16.20;94.20;;;;;;5040644;28;20031;-73
2023/09/06 03:54:17;;;;;;;6.03;2.70;;;16.20;94.30;;;;;;5028331;28;20033;-74
2023/09/06 03:56:43;;;;;;;5.57;3.10;;;16.10;94.30;;;;;;5028448;28;20040;-73
2023/09/06 03:59:09;;;;;;;6.90;3.20;;;16.10;94.50;;;;;;5035826;28;20503;-73
2023/09/06 04:01:35;;;;;;;4.68;2.78;;;16.00;94.30;;;;;;5028436;28;20072;-73
2023/09/06 04:04:01;;;;;;;5.65;3.05;;;16.00;94.60;;;;;;5038877;28;20095;-73
2023/09/06 04:06:28;;;;;;;4.80;2.90;;;16.00;94.70;;;;;;5028594;28;20025;-74
2023/09/06 04:08:54;;;;;;;4.72;2.83;;;16.00;94.70;;;;;;5032665;28;20037;-74
2023/09/06 04:11:20;;;;;;;5.53;3.45;;;16.00;94.60;;;;;;5029481;28;20038;-73
2023/09/06 04:13:45;;;;;;;5.53;3.13;;;16.00;94.70;;;;;;5025786;28;20032;-74
2023/09/06 04:16:11;;;;;;;5.00;3.22;;;16.00;94.80;;;;;;5022007;28;20413;-74
2023/09/06 04:18:36;;;;;;;8.40;3.58;;;16.00;95.00;;;;;;5029185;28;20079;-75
2023/09/06 04:21:08;;;;;;;6.75;3.40;;;16.00;94.90;;;;;;5032965;28;20071;-73
2023/09/06 04:23:33;;;;;;;5.57;3.25;;;16.00;94.80;;;;;;5029247;28;20493;-73
2023/09/06 04:26:00;;;;;;;5.93;3.13;;;16.00;94.80;;;;;;5024373;28;20069;-73
2023/09/06 04:28:26;;;;;;;5.75;3.55;;;16.10;95.00;;;;;;5025442;28;20404;-68
2023/09/06 04:30:52;;;;;;;6.18;3.40;;;16.10;94.90;;;;;;5025811;28;20044;-68
2023/09/06 04:33:18;;;;;;;4.85;3.25;;;16.10;94.90;;;;;;5023350;28;20041;-68
2023/09/06 04:35:45;;;;;;;5.13;2.83;;;16.00;94.90;;;;;;5011302;28;20036;-68
2023/09/06 04:38:12;;;;;;;5.40;2.72;;;15.90;94.60;;;;;;5028854;28;20104;-68
2023/09/06 04:40:38;;;;;;;5.70;3.20;;;15.90;94.70;;;;;;5026698;28;20532;-69
2023/09/06 04:43:05;;;;;;;4.82;2.78;;;15.80;94.70;;;;;;5023840;28;20045;-70
2023/09/06 04:45:32;;;;;;;4.93;2.97;;;15.70;94.80;;;;;;5019275;28;20053;-68
2023/09/06 04:47:58;;;;;;;6.88;3.25;;;15.70;94.80;;;;;;5024297;28;20030;-68
2023/09/06 04:50:24;;;;;;;6.78;3.15;;;15.70;94.90;;;;;;5032150;28;20052;-68
2023/09/06 04:52:52;;;;;;;5.63;2.92;;;15.60;95.00;;;;;;5032681;28;20478;-68
2023/09/06 04:55:19;;;;;;;6.13;3.42;;;15.70;95.70;;;;;;5029957;28;20075;-69
2023/09/06 04:57:46;;;;;;;6.15;3.55;;;15.70;95.90;;;;;;5032802;28;20037;-68
2023/09/06 05:00:23;;;;;;;5.82;3.08;;;15.60;95.80;;;;;;5031118;28;20474;-68
2023/09/06 05:02:51;;;;;;;5.88;3.47;;;15.60;95.40;;;;;;5019635;28;20118;-68
2023/09/06 05:05:17;;;;;;;5.32;3.40;;;15.60;95.40;;;;;;5028257;28;20048;-69
2023/09/06 05:07:44;;;;;;;4.90;3.00;;;15.60;95.30;;;;;;5028448;28;20033;-68
2023/09/06 05:10:10;;;;;;;5.88;3.00;;;15.50;95.10;;;;;;5027299;28;20029;-68
2023/09/06 05:12:36;;;;;;;10.23;3.67;;;15.50;95.40;;;;;;5022866;28;20041;-68
2023/09/06 05:15:03;;;;;;;5.55;3.20;;;15.60;95.80;;;;;;5030843;28;20037;-68
2023/09/06 05:17:28;;;;;;;7.38;3.60;;;15.70;95.90;;;;;;5023205;28;20046;-69
2023/09/06 05:19:54;;;;;;;7.63;3.42;;;15.70;96.00;;;;;;5031800;28;20093;-68
2023/09/06 05:22:22;;;;;;;5.32;3.42;;;15.80;96.00;;;;;;5033799;28;20030;-69
2023/09/06 05:24:49;;;;;;;9.18;3.70;;;15.80;96.00;;;;;;5021757;28;20505;-68
2023/09/06 05:27:14;;;;;;;6.85;3.50;;;15.80;95.80;;;;;;5034630;28;20425;-69
2023/09/06 05:29:40;;;;;;;6.20;3.70;;;15.80;95.70;;;;;;5030370;28;20021;-68
2023/09/06 05:32:06;;;;;;;5.80;3.33;;;15.80;95.80;;;;;;5023189;28;20030;-68
2023/09/06 05:34:31;;;;;;;9.05;3.58;;;15.80;95.90;;;;;;5033634;28;20052;-68
2023/09/06 05:36:57;;;;;;;7.35;3.50;;;16.00;96.00;;;;;;5011153;28;20038;-70
2023/09/06 05:39:23;;;;;;;6.88;4.00;;;16.00;95.90;;;;;;5034758;28;20247;-67
2023/09/06 05:41:50;;;;;;;7.88;4.28;;;16.10;95.70;;;;;;5026953;28;20146;-68
2023/09/06 05:44:15;;;;;;;6.30;3.97;;;16.10;95.50;;;;;;5011885;28;20417;-68
2023/09/06 05:46:43;;;;;;;8.18;4.00;;;16.30;95.40;;;;;;5024779;28;20029;-68
2023/09/06 05:49:08;;;;;;;6.43;3.65;;;16.30;95.20;;;;;;5040168;28;20033;-70
2023/09/06 05:51:34;;;;;;;7.40;3.88;;;16.40;95.10;;;;;;5045534;28;20076;-68
2023/09/06 05:54:00;;;;;;;10.35;4.13;;;16.50;95.00;;;;;;5029803;28;20033;-71
2023/09/06 05:56:26;;;;;;;5.97;3.88;;;16.70;94.90;;;;;;5030446;28;20120;-69
2023/09/06 05:58:51;;;;;;;8.35;3.80;;;16.80;94.60;;;;;;5030711;28;20037;-70
2023/09/06 06:01:17;;;;;;;6.63;3.35;;;16.90;94.20;;;;;;5028869;28;20112;-72
2023/09/06 06:03:43;;;;;;;4.72;3.15;;;17.00;94.10;;;;;;5031847;28;20025;-71
2023/09/06 06:06:10;;;;;;;6.68;3.28;;;17.00;94.20;;;;;;5038650;28;20030;-70
2023/09/06 06:08:37;;;;;;;6.93;3.20;;;17.00;94.40;;;;;;5024956;28;20060;-70
2023/09/06 06:11:03;;;;;;;5.30;3.17;;;17.10;94.30;;;;;;5031277;28;20544;-70
2023/09/06 06:13:29;;;;;;;5.13;3.40;;;17.20;94.30;;;;;;5033359;28;20030;-70
2023/09/06 06:15:54;;;;;;;7.65;3.60;;;17.30;94.30;;;;;;5025320;28;20045;-70
2023/09/06 06:18:21;;;;;;;9.27;3.22;;;17.40;94.00;;;;;;5026503;28;20402;-70
2023/09/06 06:20:46;;;;;;;6.10;3.30;;;17.50;94.00;;;;;;5031636;28;20025;-70
2023/09/06 06:23:12;;;;;;;13.38;3.80;;;17.70;93.50;;;;;;5035597;28;20025;-70
2023/09/06 06:25:38;;;;;;;6.15;3.15;;;17.70;93.30;;;;;;5034832;28;20033;-70
2023/09/06 06:28:04;;;;;;;5.53;3.13;;;17.80;93.20;;;;;;5046132;28;20133;-71
2023/09/06 06:30:29;;;;;;;8.93;3.17;;;18.00;92.80;;;;;;5024319;28;20509;-70
2023/09/06 06:32:55;;;;;;;8.02;3.47;;;18.10;92.20;;;;;;5028692;28;20033;-69
2023/09/06 06:35:20;;;;;;;4.22;2.88;;;18.30;91.60;;;;;;5022733;28;20042;-69
2023/09/06 06:37:49;;;;;;;4.65;3.05;;;18.40;91.20;;;;;;5031112;28;20034;-69
2023/09/06 06:40:16;;;;;;;4.78;3.05;;;18.60;90.90;;;;;;5033826;28;20022;-69
2023/09/06 06:42:43;;;;;;;8.10;2.88;;;18.60;91.20;;;;;;5030901;28;20025;-69
2023/09/06 06:45:09;;;;;;;5.15;2.63;;;18.70;90.90;;;;;;5025402;28;20432;-69
2023/09/06 06:47:34;;;;;;;4.15;2.58;;;18.80;90.80;;;;;;5029524;28;20083;-70
2023/09/06 06:50:03;;;;;;;5.07;2.75;;;18.90;89.70;;;;;;5027984;28;20466;-69
2023/09/06 06:52:30;;;;;;;8.07;2.80;;;19.00;89.80;;;;;;5021849;28;20117;-69
2023/09/06 06:54:56;;;;;;;5.88;2.83;;;19.10;89.60;;;;;;5018691;28;20039;-69
2023/09/06 06:57:21;;;;;;;8.00;2.60;;;19.20;89.20;;;;;;5030941;28;20034;-69
2023/09/06 06:59:47;;;;;;;7.00;2.35;;;19.50;88.20;;;;;;5026385;28;20061;-71
2023/09/06 07:02:13;;;;;;;5.90;2.17;;;19.50;88.90;;;;;;5027945;28;20123;-69
2023/09/06 07:04:39;;;;;;;4.65;2.20;;;19.50;89.00;;;;;;4998662;28;20095;-69
2023/09/06 07:07:05;;;;;;;5.45;2.67;;;19.60;88.70;;;;;;5028743;28;20040;-68
2023/09/06 07:09:31;;;;;;;4.10;2.20;;;19.70;88.20;;;;;;5027555;28;20707;-68
2023/09/06 07:11:57;;;;;;;6.15;2.30;;;19.70;87.80;;;;;;5028152;28;20094;-68
2023/09/06 07:14:22;;;;;;;6.07;2.33;;;19.80;88.30;;;;;;5018042;28;20037;-68
2023/09/06 07:16:48;;;;;;;7.72;2.25;;;19.90;87.80;;;;;;5021254;28;20062;-68
2023/09/06 07:19:14;;;;;;;3.80;2.30;;;20.00;87.10;;;;;;5026662;28;20033;-70
2023/09/06 07:21:40;;;;;;;5.15;2.13;;;20.10;87.20;;;;;;5028459;28;20037;-70
2023/09/06 07:24:06;;;;;;;3.75;1.88;;;20.40;85.90;;;;;;5025997;28;20048;-68
2023/09/06 07:26:31;;;;;;;3.83;1.98;;;20.50;85.30;;;;;;5027740;28;20120;-68
2023/09/06 07:28:57;;;;;;;6.90;2.25;;;20.50;85.70;;;;;;5028655;28;20132;-68
2023/09/06 07:31:22;;;;;;;3.28;2.15;;;20.50;86.10;;;;;;5025278;28;20037;-68
2023/09/06 07:33:48;;;;;;;5.18;1.92;;;20.70;85.80;;;;;;5024150;28;20033;-68
2023/09/06 07:36:14;;;;;;;5.95;2.10;;;20.60;86.20;;;;;;5027242;28;20064;-68
2023/09/06 07:38:40;;;;;;;4.15;1.77;;;20.90;84.30;;;;;;5026442;28;20109;-73
2023/09/06 07:41:07;;;;;;;3.58;1.60;;;20.90;83.90;;;;;;5030817;28;20087;-68
2023/09/06 07:43:34;;;;;;;3.35;1.80;;;20.80;86.10;;;;;;5027884;28;20041;-68
2023/09/06 07:46:01;;;;;;;5.60;1.67;;;20.90;85.60;;;;;;5023995;28;20037;-70
2023/09/06 07:48:28;;;;;;;3.72;1.63;;;21.00;85.80;;;;;;5023847;28;20041;-71
2023/09/06 07:50:54;;;;;;;5.28;1.98;;;21.00;86.20;;;;;;5027558;28;20033;-68
2023/09/06 07:53:20;;;;;;;4.75;1.83;;;21.30;84.90;;;;;;5010368;28;20033;-67
2023/09/06 07:55:46;;;;;;;13.00;2.30;;;21.50;85.10;;;;;;5031201;28;20045;-68
2023/09/06 07:58:13;;;;;;;3.47;1.50;;;21.70;83.30;;;;;;5030719;28;20086;-69
2023/09/06 08:00:39;;;;;;;3.65;1.67;;;22.00;82.50;;;;;;5021566;28;20060;-71
2023/09/06 08:03:05;;;;;;;4.35;1.70;;;22.10;82.50;;;;;;5031441;28;20060;-69
2023/09/06 08:05:31;;;;;;;3.80;1.67;;;22.20;81.80;;;;;;5018231;28;20398;-69
2023/09/06 08:07:57;;;;;;;4.85;1.48;;;22.50;80.80;;;;;;5019013;28;20029;-73
2023/09/06 08:10:23;;;;;;;3.72;1.70;;;22.80;79.60;;;;;;5020696;28;20034;-69
2023/09/06 08:12:48;;;;;;;19.63;1.73;;;22.90;81.00;;;;;;5026281;28;20057;-71
2023/09/06 08:15:14;;;;;;;5.40;1.85;;;23.20;78.60;;;;;;5024001;28;20069;-68
2023/09/06 08:17:39;;;;;;;1.98;1.40;;;23.50;76.90;;;;;;5023106;28;20064;-68
2023/09/06 08:20:08;;;;;;;2.65;1.33;;;23.60;79.50;;;;;;5024028;28;20025;-68
2023/09/06 08:22:35;;;;;;;4.05;1.35;;;23.70;78.30;;;;;;5027479;28;20035;-71
2023/09/06 08:25:02;;;;;;;3.25;1.38;;;24.00;76.00;;;;;;5024464;28;20504;-69
2023/09/06 08:27:27;;;;;;;4.10;1.45;;;24.10;74.60;;;;;;5032230;28;20029;-68
2023/09/06 08:29:53;;;;;;;3.45;1.70;;;24.30;77.10;;;;;;5027312;28;20393;-68
2023/09/06 08:32:18;;;;;;;2.85;1.30;;;24.50;75.10;;;;;;5024866;28;20033;-68
2023/09/06 08:34:44;;;;;;;3.85;1.10;;;24.70;71.90;;;;;;5028891;28;20041;-68
2023/09/06 08:37:10;;;;;;;4.75;1.77;;;24.90;74.20;;;;;;5027201;28;20382;-68
2023/09/06 08:39:36;;;;;;;5.38;1.10;;;25.00;73.50;;;;;;5019128;28;20033;-67
2023/09/06 08:42:03;;;;;;;2.25;1.30;;;25.10;71.00;;;;;;5016967;28;20029;-68
2023/09/06 08:44:32;;;;;;;3.17;1.10;;;25.20;69.40;;;;;;5022873;28;20485;-67
2023/09/06 08:47:01;;;;;;;3.05;1.10;;;25.40;71.10;;;;;;5024827;28;20048;-70
2023/09/06 08:49:27;;;;;;;2.95;1.40;;;25.50;69.50;;;;;;5026407;28;20029;-70
2023/09/06 08:51:55;;;;;;;3.40;1.00;;;25.70;70.30;;;;;;5025102;28;20039;-70
2023/09/06 08:54:23;;;;;;;2.45;1.00;;;25.90;68.60;;;;;;5023039;28;20088;-68
2023/09/06 08:56:50;;;;;;;5.90;1.30;;;26.00;68.70;;;;;;5007233;28;20087;-69
2023/09/06 08:59:16;;;;;;;2.65;1.10;;;26.20;68.50;;;;;;5028328;28;20022;-70
2023/09/06 09:01:42;;;;;;;1.73;0.88;;;26.30;66.70;;;;;;5026925;28;20367;-70
2023/09/06 09:04:09;;;;;;;2.63;1.13;;;26.40;64.60;;;;;;5023595;28;20385;-75
2023/09/06 09:06:34;;;;;;;3.53;1.20;;;26.50;64.70;;;;;;5022139;28;20037;-70
2023/09/06 09:09:32;;;;;;;3.20;1.30;;;26.70;63.80;;;;;;5023458;28;20025;-70
2023/09/06 09:11:59;;;;;;;2.78;1.17;;;26.90;63.10;;;;;;4971720;28;20084;-70
2023/09/06 09:14:25;;;;;;;2.42;1.10;;;27.00;65.70;;;;;;5012317;28;20711;-69
2023/09/06 09:16:58;;;;;;;3.08;1.15;;;27.10;63.40;;;;;;5027257;28;20068;-70
2023/09/06 09:19:24;;;;;;;5.45;1.17;;;27.00;65.60;;;;;;5028388;28;20036;-70
2023/09/06 09:21:50;;;;;;;3.75;1.30;;;27.20;62.50;;;;;;5035726;28;20084;-69
2023/09/06 09:24:25;;;;;;;4.32;1.10;;;27.20;63.80;;;;;;5023930;28;20422;-70
2023/09/06 09:26:51;;;;;;;4.43;1.17;;;27.20;67.10;;;;;;5026907;28;20049;-71
2023/09/06 09:29:16;;;;;;;4.05;1.13;;;27.40;63.90;;;;;;5022567;28;20034;-71
2023/09/06 09:31:42;;;;;;;4.35;1.58;;;27.60;64.30;;;;;;5030659;28;20059;-71
2023/09/06 09:34:07;;;;;;;6.22;1.00;;;27.70;66.00;;;;;;5026159;28;20045;-71
2023/09/06 09:36:34;;;;;;;3.92;1.13;;;27.70;63.30;;;;;;5010200;28;20539;-70
2023/09/06 09:39:06;;;;;;;3.10;1.27;;;27.90;64.70;;;;;;5030662;28;20036;-69
2023/09/06 09:41:31;;;;;;;2.55;1.00;;;27.90;61.90;;;;;;5031816;28;20040;-70
2023/09/06 09:44:19;;;;;;;5.20;0.95;;;28.00;63.70;;;;;;5028940;28;20041;-71
2023/09/06 09:46:45;;;;;;;2.85;1.05;;;28.20;62.90;;;;;;5029477;28;20057;-69
2023/09/06 09:49:13;;;;;;;2.42;1.00;;;28.40;63.20;;;;;;5026460;28;20494;-70
2023/09/06 09:51:40;;;;;;;3.03;1.20;;;28.50;62.40;;;;;;5027064;28;20034;-70
2023/09/06 09:54:07;;;;;;;4.80;1.27;;;28.30;60.90;;;;;;5021129;28;20398;-71
2023/09/06 09:56:37;;;;;;;2.13;0.80;;;28.60;60.90;;;;;;5024784;28;20579;-73
2023/09/06 09:59:04;;;;;;;1.40;0.95;;;28.80;59.60;;;;;;5014801;28;20084;-72
2023/09/06 10:01:31;;;;;;;1.92;1.00;;;28.90;57.40;;;;;;5030844;28;20067;-69
2023/09/06 10:03:58;;;;;;;3.97;1.20;;;28.90;60.00;;;;;;5026744;28;20037;-72
2023/09/06 10:06:26;;;;;;;3.08;1.25;;;29.00;61.10;;;;;;5026503;28;20033;-69
2023/09/06 10:08:55;;;;;;;1.30;0.90;;;28.90;58.00;;;;;;5025896;28;20493;-70
2023/09/06 10:11:21;;;;;;;1.23;0.90;;;29.30;60.10;;;;;;5023503;28;20025;-70
2023/09/06 10:13:47;;;;;;;1.50;0.88;;;29.20;54.50;;;;;;5020466;28;20041;-71
2023/09/06 10:16:14;;;;;;;3.08;0.80;;;29.40;58.80;;;;;;5021904;28;20048;-71
2023/09/06 10:18:39;;;;;;;1.25;0.60;;;29.30;54.90;;;;;;5025630;28;20152;-70
2023/09/06 10:21:06;;;;;;;4.70;1.00;;;29.50;56.80;;;;;;5026240;28;20127;-70
2023/09/06 10:23:40;;;;;;;2.25;0.88;;;29.60;56.00;;;;;;5033140;28;20515;-69
2023/09/06 10:26:06;;;;;;;1.65;0.73;;;29.80;54.80;;;;;;5037465;28;20094;-69
2023/09/06 10:28:33;;;;;;;2.80;0.60;;;30.00;52.90;;;;;;5032677;28;20060;-71
2023/09/06 10:31:07;;;;;;;2.35;0.65;;;29.90;52.90;;;;;;5030324;28;20079;-69
2023/09/06 10:33:35;;;;;;;4.35;0.77;;;29.50;51.10;;;;;;5036698;28;20529;-70
2023/09/06 10:36:16;;;;;;;1.73;0.90;;;29.70;51.60;;;;;;5033840;28;20489;-69
2023/09/06 10:38:55;;;;;;;0.73;0.50;;;29.70;49.90;;;;;;5040248;28;20037;-70
2023/09/06 10:41:22;;;;;;;1.50;0.63;;;29.90;50.50;;;;;;5045186;28;20029;-70
2023/09/06 10:44:11;;;;;;;3.50;0.90;;;30.10;51.80;;;;;;5032075;28;20378;-71
2023/09/06 10:46:37;;;;;;;0.98;0.57;;;30.00;48.90;;;;;;5036145;28;20041;-70
2023/09/06 10:49:19;;;;;;;1.75;0.70;;;30.10;49.10;;;;;;5022157;28;20021;-70
2023/09/06 10:51:57;;;;;;;1.85;0.50;;;30.30;49.60;;;;;;5027159;28;20029;-69
2023/09/06 10:54:34;;;;;;;0.85;0.50;;;30.40;49.30;;;;;;5035381;28;20056;-69
2023/09/06 10:57:10;;;;;;;1.42;0.65;;;30.80;49.10;;;;;;5036758;28;20458;-70
2023/09/06 10:59:43;;;;;;;2.80;0.98;;;30.60;47.30;;;;;;5023211;28;20041;-71
2023/09/06 11:02:23;;;;;;;1.40;0.70;;;31.00;48.40;;;;;;5016581;28;20042;-74
2023/09/06 11:05:02;;;;;;;1.48;0.75;;;30.50;47.20;;;;;;5025439;28;20043;-70
2023/09/06 11:07:44;;;;;;;1.20;0.70;;;30.90;48.10;;;;;;5031530;28;20072;-71
2023/09/06 11:10:10;;;;;;;1.67;0.70;;;30.90;47.00;;;;;;5027951;28;20041;-74
2023/09/06 11:12:37;;;;;;;2.65;0.70;;;30.90;48.50;;;;;;5028127;28;22498;-70
2023/09/06 11:15:05;;;;;;;0.68;0.60;;;31.00;46.60;;;;;;5023327;28;20032;-73
2023/09/06 11:17:31;;;;;;;2.72;0.70;;;30.90;45.60;;;;;;5030515;28;20045;-70
2023/09/06 11:20:09;;;;;;;1.17;0.57;;;31.40;50.60;;;;;;5032819;28;20436;-70
2023/09/06 11:22:35;;;;;;;4.70;0.80;;;31.90;48.50;;;;;;5028662;28;20378;-70
2023/09/06 11:25:00;;;;;;;1.75;0.50;;;31.90;46.90;;;;;;5033579;28;20029;-71
2023/09/06 11:27:33;;;;;;;1.35;0.70;;;31.80;46.00;;;;;;5035862;28;20093;-72
2023/09/06 11:30:10;;;;;;;3.67;0.63;;;31.80;44.30;;;;;;5032681;28;20028;-71
2023/09/06 11:32:39;;;;;;;1.25;0.60;;;32.10;47.30;;;;;;5031150;28;20034;-70
2023/09/06 11:35:08;;;;;;;6.20;1.70;;;32.10;45.60;;;;;;5033826;28;20481;-70
2023/09/06 11:37:37;;;;;;;1.10;0.73;;;32.40;48.30;;;;;;5034691;28;20107;-71
2023/09/06 11:40:13;;;;;;;0.73;0.50;;;32.50;45.60;;;;;;5036004;28;20440;-70
2023/09/06 11:42:40;;;;;;;0.88;0.52;;;32.40;40.90;;;;;;5025764;28;20328;-71
2023/09/06 11:45:09;;;;;;;0.93;0.52;;;32.20;42.60;;;;;;5026938;28;20036;-71
2023/09/06 11:47:35;;;;;;;1.17;0.60;;;32.50;43.00;;;;;;5028247;28;20018;-71
2023/09/06 11:50:05;;;;;;;1.23;0.68;;;32.50;41.60;;;;;;5036937;28;20068;-71
2023/09/06 11:52:30;;;;;;;;;;;32.70;42.00;;;;;;5049987;28;20029;-71
2023/09/06 11:54:58;;;;;;;0.75;0.50;;;32.90;44.30;;;;;;5036715;28;19917;-71
2023/09/06 11:57:26;;;;;;;3.60;0.50;;;32.60;42.50;;;;;;5023031;28;20045;-70
2023/09/06 11:59:57;;;;;;;0.63;0.40;;;33.50;45.10;;;;;;5017293;28;20073;-70
2023/09/06 12:02:33;;;;;;;1.98;0.63;;;32.90;41.00;;;;;;5031181;28;20536;-71
2023/09/06 12:05:00;;;;;;;0.57;0.47;;;33.30;41.30;;;;;;5025791;28;20045;-71
2023/09/06 12:07:31;;;;;;;2.08;0.60;;;33.80;42.70;;;;;;5018806;28;20026;-71
2023/09/06 12:09:58;;;;;;;1.05;0.47;;;33.80;42.90;;;;;;5028837;28;20430;-73
2023/09/06 12:12:26;;;;;;;1.25;0.60;;;33.90;40.00;;;;;;5030409;28;20061;-71
2023/09/06 12:14:52;;;;;;;0.45;0.40;;;33.70;38.50;;;;;;5025209;28;20033;-71
2023/09/06 12:17:19;;;;;;;0.47;0.40;;;33.90;38.80;;;;;;5024719;28;20077;-74
2023/09/06 12:19:45;;;;;;;1.13;0.40;;;33.90;39.80;;;;;;5032339;28;20029;-71
2023/09/06 12:22:14;;;;;;;1.45;0.43;;;34.40;37.90;;;;;;5037417;28;20037;-71
2023/09/06 12:24:45;;;;;;;2.95;0.47;;;34.50;39.70;;;;;;5022995;28;20090;-71
2023/09/06 12:27:14;;;;;;;2.83;1.05;;;34.50;39.70;;;;;;5027762;28;20470;-71
2023/09/06 12:29:40;;;;;;;0.65;0.50;;;35.00;40.30;;;;;;5029390;28;20037;-72
2023/09/06 12:32:06;;;;;;;1.35;0.60;;;34.70;38.60;;;;;;5021721;28;20045;-71
2023/09/06 12:34:31;;;;;;;2.58;0.50;;;34.90;39.80;;;;;;5029351;28;20109;-71
2023/09/06 12:36:57;;;;;;;1.95;0.50;;;35.20;37.70;;;;;;5029953;28;20048;-74
2023/09/06 12:39:22;;;;;;;2.35;0.70;;;35.30;40.50;;;;;;5025912;28;20127;-71
2023/09/06 12:41:48;;;;;;;1.38;0.55;;;35.60;38.50;;;;;;5020609;28;20045;-72
2023/09/06 12:44:14;;;;;;;0.90;0.50;;;35.90;39.80;;;;;;5027339;28;20139;-73
2023/09/06 12:46:40;;;;;;;1.52;0.73;;;35.80;36.90;;;;;;5025528;28;20525;-71
2023/09/06 12:49:05;;;;;;;1.67;0.50;;;36.20;38.00;;;;;;5026040;28;20067;-71